createdAt,value
2019-03-26T00:01:59.273Z,3.80
2019-03-26T00:04:27.703Z,4.57
2019-03-26T00:06:56.165Z,4.47
2019-03-26T00:09:26.903Z,5.70
2019-03-26T00:11:55.427Z,6.37
2019-03-26T00:14:23.833Z,4.47
2019-03-26T00:16:52.276Z,4.87
2019-03-26T00:19:20.756Z,4.00
2019-03-26T00:21:49.168Z,5.33
2019-03-26T00:24:17.609Z,5.37
2019-03-26T00:26:46.028Z,4.47
2019-03-26T00:29:14.527Z,4.63
2019-03-26T00:31:43.248Z,5.53
2019-03-26T00:34:19.257Z,3.83
2019-03-26T00:36:41.916Z,5.57
2019-03-26T00:39:10.368Z,4.40
2019-03-26T00:41:38.813Z,3.80
2019-03-26T00:44:07.232Z,5.60
2019-03-26T00:46:35.675Z,4.30
2019-03-26T00:49:04.149Z,4.97
2019-03-26T00:51:32.605Z,5.87
2019-03-26T00:54:01.785Z,6.27
2019-03-26T00:56:30.226Z,4.43
2019-03-26T00:58:58.771Z,4.43
2019-03-26T01:01:27.233Z,4.13
2019-03-26T01:03:55.690Z,4.80
2019-03-26T01:06:24.102Z,5.50
2019-03-26T01:08:52.591Z,4.00
2019-03-26T01:11:20.997Z,4.20
2019-03-26T01:13:49.532Z,5.20
2019-03-26T01:16:18.211Z,3.97
2019-03-26T01:18:46.634Z,4.10
2019-03-26T01:21:15.132Z,5.17
2019-03-26T01:23:43.577Z,5.10
2019-03-26T01:26:11.972Z,3.90
2019-03-26T01:28:40.401Z,4.10
2019-03-26T01:31:08.851Z,4.27
2019-03-26T01:33:37.261Z,4.13
2019-03-26T01:36:05.695Z,5.43
2019-03-26T01:38:34.124Z,4.40
2019-03-26T01:41:02.644Z,4.30
2019-03-26T01:43:31.105Z,5.10
2019-03-26T01:45:59.612Z,4.97
2019-03-26T01:48:28.085Z,3.60
2019-03-26T01:50:56.536Z,3.77
2019-03-26T01:53:24.999Z,4.50
2019-03-26T01:55:53.497Z,4.00
2019-03-26T01:58:22.168Z,4.30
2019-03-26T02:00:50.635Z,5.20
2019-03-26T02:03:19.100Z,5.83
2019-03-26T02:05:47.529Z,4.23
2019-03-26T02:08:15.944Z,5.53
2019-03-26T02:10:44.518Z,5.20
2019-03-26T02:13:13.033Z,4.17
2019-03-26T02:15:41.673Z,5.00
2019-03-26T02:18:10.109Z,4.50
2019-03-26T02:20:38.543Z,4.90
2019-03-26T02:23:07.070Z,5.20
2019-03-26T02:25:35.525Z,3.57
2019-03-26T02:28:04.003Z,5.57
2019-03-26T02:30:32.558Z,4.70
2019-03-26T02:33:01.058Z,5.20
2019-03-26T02:35:29.542Z,4.97
2019-03-26T02:38:01.273Z,5.03
2019-03-26T02:40:29.694Z,4.80
2019-03-26T02:42:58.180Z,5.10
2019-03-26T02:45:26.701Z,4.20
2019-03-26T02:47:55.103Z,4.80
2019-03-26T02:50:23.565Z,4.33
2019-03-26T02:52:52.009Z,4.47
2019-03-26T02:55:20.432Z,4.90
2019-03-26T02:57:48.926Z,4.57
2019-03-26T03:00:17.358Z,5.43
2019-03-26T03:03:05.132Z,5.00
2019-03-26T03:05:35.864Z,5.97
2019-03-26T03:08:03.729Z,5.50
2019-03-26T03:10:32.145Z,6.00
2019-03-26T03:13:00.574Z,15.57
2019-03-26T03:15:29.014Z,7.40
2019-03-26T03:17:57.530Z,6.23
2019-03-26T03:20:45.333Z,7.07
2019-03-26T03:23:13.909Z,6.90
2019-03-26T03:25:42.321Z,7.33
2019-03-26T03:28:10.769Z,7.50
2019-03-26T03:30:39.281Z,7.97
2019-03-26T03:33:07.688Z,5.50
2019-03-26T03:35:51.175Z,5.43
2019-03-26T03:38:06.272Z,6.13
2019-03-26T03:40:35.267Z,7.30
2019-03-26T03:43:03.760Z,5.83
2019-03-26T03:45:33.105Z,4.63
2019-03-26T03:48:01.691Z,11.13
2019-03-26T03:50:30.502Z,9.43
2019-03-26T03:53:01.076Z,6.10
2019-03-26T03:55:30.982Z,5.30
2019-03-26T03:58:01.301Z,4.73
2019-03-26T04:00:35.148Z,6.07
2019-03-26T04:03:04.794Z,7.00
2019-03-26T04:05:33.678Z,5.83
2019-03-26T04:08:02.463Z,4.87
2019-03-26T04:10:30.879Z,5.30
2019-03-26T04:12:59.384Z,5.40
2019-03-26T04:15:27.812Z,4.80
2019-03-26T04:17:56.319Z,5.20
2019-03-26T04:20:24.828Z,4.90
2019-03-26T04:22:53.322Z,5.13
2019-03-26T04:25:21.752Z,5.43
2019-03-26T04:27:50.215Z,5.10
2019-03-26T04:30:31.750Z,5.20
2019-03-26T04:33:00.254Z,4.87
2019-03-26T04:35:28.692Z,4.77
2019-03-26T04:37:57.174Z,5.90
2019-03-26T04:40:25.618Z,5.67
2019-03-26T04:42:54.038Z,4.43
2019-03-26T04:45:22.531Z,4.80
2019-03-26T04:47:50.924Z,5.57
2019-03-26T04:50:19.414Z,5.67
2019-03-26T04:52:47.844Z,6.10
2019-03-26T04:55:16.371Z,5.57
2019-03-26T04:57:44.772Z,5.50
2019-03-26T05:00:13.650Z,4.30
2019-03-26T05:02:42.103Z,3.60
2019-03-26T05:05:12.366Z,4.53
2019-03-26T05:07:40.789Z,4.20
2019-03-26T05:10:09.488Z,5.10
2019-03-26T05:12:37.913Z,3.70
2019-03-26T05:15:07.071Z,4.37
2019-03-26T05:17:35.517Z,4.20
2019-03-26T05:20:06.151Z,4.37
2019-03-26T05:22:34.874Z,3.50
2019-03-26T05:25:04.821Z,5.00
2019-03-26T05:27:44.872Z,4.77
2019-03-26T05:30:04.573Z,2.83
2019-03-26T05:32:33.044Z,4.07
2019-03-26T05:35:01.484Z,4.70
2019-03-26T05:37:29.957Z,3.77
2019-03-26T05:39:58.417Z,3.80
2019-03-26T05:42:26.861Z,3.17
2019-03-26T05:44:55.277Z,4.27
2019-03-26T05:47:23.729Z,3.80
2019-03-26T05:49:52.237Z,4.50
2019-03-26T05:52:20.830Z,4.03
2019-03-26T05:54:49.241Z,4.83
2019-03-26T05:57:17.714Z,3.17
2019-03-26T05:59:46.141Z,5.20
2019-03-26T06:02:17.930Z,4.83
2019-03-26T06:04:44.808Z,2.93
2019-03-26T06:07:13.231Z,4.87
2019-03-26T06:09:41.749Z,4.77
2019-03-26T06:12:10.213Z,7.90
2019-03-26T06:14:38.657Z,7.63
2019-03-26T06:17:07.266Z,8.63
2019-03-26T06:19:35.776Z,7.60
2019-03-26T06:22:04.188Z,7.20
2019-03-26T06:24:32.612Z,7.10
2019-03-26T06:27:01.047Z,7.77
2019-03-26T06:29:30.056Z,7.00
2019-03-26T06:31:58.504Z,6.00
2019-03-26T06:34:27.019Z,5.80
2019-03-26T06:36:55.433Z,5.97
2019-03-26T06:39:23.863Z,5.80
2019-03-26T06:41:52.354Z,5.70
2019-03-26T06:44:22.411Z,5.50
2019-03-26T06:46:54.063Z,5.80
2019-03-26T06:49:21.985Z,5.60
2019-03-26T06:51:50.455Z,5.70
2019-03-26T06:54:21.434Z,5.70
2019-03-26T06:56:49.893Z,7.33
2019-03-26T06:59:18.359Z,5.67
2019-03-26T07:01:48.751Z,5.90
2019-03-26T07:04:25.004Z,6.33
2019-03-26T07:06:57.797Z,7.40
2019-03-26T07:09:26.869Z,7.47
2019-03-26T07:11:55.415Z,7.20
2019-03-26T07:14:45.292Z,6.93
2019-03-26T07:17:14.637Z,5.80
2019-03-26T07:19:47.447Z,5.20
2019-03-26T07:22:16.479Z,6.00
2019-03-26T07:24:45.329Z,5.87
2019-03-26T07:27:15.361Z,6.97
2019-03-26T07:29:49.373Z,5.17
2019-03-26T07:32:19.169Z,5.53
2019-03-26T07:34:47.999Z,6.03
2019-03-26T07:37:17.939Z,4.83
2019-03-26T07:39:54.769Z,6.80
2019-03-26T07:42:24.436Z,6.40
2019-03-26T07:44:58.116Z,5.53
2019-03-26T07:47:28.159Z,5.60
2019-03-26T07:49:56.559Z,6.30
2019-03-26T07:52:26.204Z,6.33
2019-03-26T07:54:59.556Z,7.63
2019-03-26T07:57:29.627Z,5.40
2019-03-26T07:59:58.220Z,6.40
2019-03-26T08:02:27.959Z,7.10
2019-03-26T08:05:02.440Z,6.00
2019-03-26T08:07:35.307Z,5.20
2019-03-26T08:10:09.054Z,5.17
2019-03-26T08:12:41.446Z,4.93
2019-03-26T08:15:09.714Z,5.07
2019-03-26T08:17:38.273Z,6.40
2019-03-26T08:20:12.645Z,5.90
2019-03-26T08:22:42.616Z,4.60
2019-03-26T08:25:12.495Z,5.80
2019-03-26T08:27:41.063Z,6.30
2019-03-26T08:30:11.163Z,5.30
2019-03-26T08:32:43.966Z,5.27
2019-03-26T08:35:12.702Z,5.63
2019-03-26T08:37:41.478Z,5.70
2019-03-26T08:40:10.886Z,5.07
2019-03-26T08:42:44.766Z,5.60
2019-03-26T08:45:13.570Z,6.97
2019-03-26T08:47:42.700Z,5.73
2019-03-26T08:50:14.358Z,5.47
2019-03-26T08:52:47.639Z,5.17
2019-03-26T08:55:20.221Z,5.10
2019-03-26T08:57:49.176Z,5.63
2019-03-26T09:00:18.291Z,6.30
2019-03-26T09:02:48.510Z,6.87
2019-03-26T09:05:21.471Z,8.00
2019-03-26T09:07:51.220Z,5.73
2019-03-26T09:10:19.692Z,5.00
2019-03-26T09:12:49.539Z,4.80
2019-03-26T09:15:20.982Z,5.70
2019-03-26T09:17:49.382Z,5.47
2019-03-26T09:20:17.820Z,5.07
2019-03-26T09:22:48.522Z,6.40
2019-03-26T09:25:17.574Z,5.60
2019-03-26T09:27:46.352Z,5.30
2019-03-26T09:30:18.933Z,5.73
2019-03-26T09:32:51.859Z,5.30
2019-03-26T09:35:25.876Z,7.80
2019-03-26T09:37:59.778Z,7.50
2019-03-26T09:40:31.110Z,5.13
2019-03-26T09:42:59.537Z,5.30
2019-03-26T09:45:27.956Z,4.70
2019-03-26T09:47:58.757Z,6.90
2019-03-26T09:50:33.856Z,4.47
2019-03-26T09:53:04.595Z,4.87
2019-03-26T09:55:33.418Z,5.50
2019-03-26T09:58:02.178Z,6.93
2019-03-26T10:00:33.915Z,6.20
2019-03-26T10:03:11.250Z,3.87
2019-03-26T10:05:43.792Z,6.10
2019-03-26T10:08:18.020Z,6.00
2019-03-26T10:10:51.066Z,5.40
2019-03-26T10:13:23.629Z,5.10
2019-03-26T10:15:52.297Z,4.53
2019-03-26T10:18:20.709Z,4.50
2019-03-26T10:20:54.000Z,6.50
2019-03-26T10:23:24.591Z,5.23
2019-03-26T10:25:53.021Z,6.67
2019-03-26T10:28:21.455Z,5.77
2019-03-26T10:30:51.697Z,6.07
2019-03-26T10:33:20.552Z,5.40
2019-03-26T10:35:49.311Z,5.00
2019-03-26T10:38:19.238Z,4.90
2019-03-26T10:40:51.276Z,5.30
2019-03-26T10:43:20.362Z,4.33
2019-03-26T10:45:48.856Z,4.80
2019-03-26T10:48:19.844Z,3.90
2019-03-26T10:50:53.338Z,4.90
2019-03-26T10:53:29.514Z,4.80
2019-03-26T10:56:01.108Z,4.67
2019-03-26T10:58:29.684Z,4.90
2019-03-26T11:00:58.195Z,6.67
2019-03-26T11:03:30.839Z,4.90
2019-03-26T11:06:01.299Z,5.13
2019-03-26T11:08:29.986Z,5.63
2019-03-26T11:10:58.421Z,5.73
2019-03-26T11:13:31.544Z,6.27
2019-03-26T11:16:04.488Z,5.20
2019-03-26T11:18:34.306Z,4.90
2019-03-26T11:21:03.402Z,5.83
2019-03-26T11:23:32.571Z,5.70
2019-03-26T11:26:05.150Z,5.50
2019-03-26T11:28:35.616Z,5.57
2019-03-26T11:31:04.468Z,3.70
2019-03-26T11:33:34.234Z,4.40
2019-03-26T11:36:06.849Z,3.97
2019-03-26T11:38:36.576Z,4.83
2019-03-26T11:41:05.452Z,5.10
2019-03-26T11:43:35.116Z,4.67
2019-03-26T11:46:06.765Z,4.20
2019-03-26T11:48:35.218Z,4.33
2019-03-26T11:51:03.618Z,5.90
2019-03-26T11:53:33.912Z,4.83
2019-03-26T11:56:03.839Z,5.07
2019-03-26T11:58:34.007Z,5.03
2019-03-26T12:01:03.626Z,4.77
2019-03-26T12:03:34.605Z,4.87
2019-03-26T12:06:03.064Z,5.33
2019-03-26T12:08:31.876Z,5.53
2019-03-26T12:11:03.556Z,6.00
2019-03-26T12:13:37.367Z,5.10
2019-03-26T12:16:08.977Z,5.10
2019-03-26T12:18:37.682Z,5.00
2019-03-26T12:21:06.130Z,4.13
2019-03-26T12:23:38.148Z,4.50
2019-03-26T12:26:09.358Z,5.20
2019-03-26T12:28:37.740Z,5.40
2019-03-26T12:31:06.194Z,4.57
2019-03-26T12:33:39.070Z,5.50
2019-03-26T12:36:09.390Z,4.40
2019-03-26T12:38:38.260Z,5.47
2019-03-26T12:41:06.705Z,5.80
2019-03-26T12:43:38.037Z,5.30
2019-03-26T12:46:06.540Z,5.00
2019-03-26T12:48:35.038Z,5.40
2019-03-26T12:51:07.776Z,5.20
2019-03-26T12:53:39.386Z,4.93
2019-03-26T12:56:08.246Z,4.60
2019-03-26T12:58:40.788Z,5.67
2019-03-26T13:01:09.220Z,5.00
2019-03-26T13:03:44.601Z,6.93
2019-03-26T13:06:16.769Z,5.77
2019-03-26T13:08:49.397Z,5.87
2019-03-26T13:11:22.959Z,6.13
2019-03-26T13:13:52.470Z,6.40
2019-03-26T13:16:40.313Z,6.63
2019-03-26T13:19:09.232Z,5.50
2019-03-26T13:21:40.718Z,5.93
2019-03-26T13:24:15.542Z,5.30
2019-03-26T13:26:49.008Z,5.23
2019-03-26T13:29:21.206Z,7.70
2019-03-26T13:31:50.041Z,5.73
2019-03-26T13:34:18.954Z,5.13
2019-03-26T13:36:48.984Z,5.40
2019-03-26T13:39:20.494Z,5.43
2019-03-26T13:41:49.290Z,6.10
2019-03-26T13:44:17.760Z,6.43
2019-03-26T13:46:48.942Z,4.87
2019-03-26T13:49:17.392Z,5.70
2019-03-26T13:51:46.633Z,5.20
2019-03-26T13:54:17.797Z,4.93
2019-03-26T13:56:50.192Z,6.23
2019-03-26T13:59:23.278Z,5.30
2019-03-26T14:01:51.771Z,5.17
2019-03-26T14:04:20.516Z,5.50
2019-03-26T14:06:52.547Z,5.73
2019-03-26T14:09:24.872Z,5.80
2019-03-26T14:11:53.757Z,5.90
2019-03-26T14:14:22.524Z,6.10
2019-03-26T14:16:52.344Z,4.70
2019-03-26T14:19:27.303Z,6.80
2019-03-26T14:21:56.812Z,5.67
2019-03-26T14:24:25.526Z,5.23
2019-03-26T14:26:55.626Z,4.87
2019-03-26T14:29:30.089Z,5.43
2019-03-26T14:32:00.854Z,5.20
2019-03-26T14:34:36.607Z,6.30
2019-03-26T14:37:08.815Z,7.27
2019-03-26T14:39:37.566Z,6.00
2019-03-26T14:42:06.344Z,5.87
2019-03-26T14:44:36.100Z,5.00
2019-03-26T14:47:06.107Z,5.03
2019-03-26T14:49:34.957Z,5.20
2019-03-26T14:52:04.187Z,6.30
2019-03-26T14:54:36.180Z,4.67
2019-03-26T14:57:05.141Z,5.53
2019-03-26T14:59:33.931Z,5.90
2019-03-26T15:02:06.188Z,6.00
2019-03-26T15:04:37.380Z,5.37
2019-03-26T15:07:05.861Z,6.07
2019-03-26T15:09:34.628Z,5.50
2019-03-26T15:12:07.322Z,5.30
2019-03-26T15:14:39.297Z,4.77
2019-03-26T15:17:10.144Z,6.97
2019-03-26T15:19:39.164Z,5.70
2019-03-26T15:22:07.632Z,5.70
2019-03-26T15:24:39.536Z,5.10
2019-03-26T15:27:08.058Z,6.10
2019-03-26T15:29:36.695Z,6.50
2019-03-26T15:32:06.806Z,6.77
2019-03-26T15:34:39.459Z,6.10
2019-03-26T15:37:08.200Z,6.03
2019-03-26T15:39:36.652Z,7.43
2019-03-26T15:42:10.635Z,5.90
2019-03-26T15:44:41.473Z,4.80
2019-03-26T15:47:09.907Z,5.23
2019-03-26T15:49:38.322Z,6.13
2019-03-26T15:52:08.535Z,6.17
2019-03-26T15:54:36.959Z,5.60
2019-03-26T15:57:05.459Z,6.60
2019-03-26T15:59:37.013Z,5.90
2019-03-26T16:02:07.172Z,5.33
2019-03-26T16:04:35.612Z,5.53
2019-03-26T16:07:04.510Z,7.23
2019-03-26T16:09:36.295Z,4.90
2019-03-26T16:12:05.139Z,5.27
2019-03-26T16:14:33.903Z,6.20
2019-03-26T16:17:06.090Z,5.40
2019-03-26T16:19:36.539Z,5.70
2019-03-26T16:22:06.581Z,6.70
2019-03-26T16:24:35.068Z,7.27
2019-03-26T16:27:03.574Z,19.20
2019-03-26T16:29:32.009Z,6.73
2019-03-26T16:32:00.459Z,6.83
2019-03-26T16:34:28.921Z,6.43
2019-03-26T16:36:59.871Z,6.03
2019-03-26T16:39:27.523Z,6.53
2019-03-26T16:41:55.981Z,7.17
2019-03-26T16:44:24.410Z,5.87
2019-03-26T16:46:52.876Z,7.30
2019-03-26T16:49:21.416Z,5.27
2019-03-26T16:51:49.909Z,4.23
2019-03-26T16:54:18.357Z,5.17
2019-03-26T16:56:46.857Z,6.57
2019-03-26T16:59:15.278Z,4.90
2019-03-26T17:01:43.685Z,6.30
2019-03-26T17:04:12.146Z,6.20
2019-03-26T17:06:40.674Z,8.97
2019-03-26T17:09:09.113Z,9.33
2019-03-26T17:11:37.722Z,5.20
2019-03-26T17:14:06.180Z,4.93
2019-03-26T17:16:34.571Z,6.10
2019-03-26T17:19:03.013Z,5.20
2019-03-26T17:21:31.447Z,5.40
2019-03-26T17:23:59.863Z,5.40
2019-03-26T17:26:28.303Z,6.27
2019-03-26T17:28:56.725Z,4.90
2019-03-26T17:31:25.177Z,6.00
2019-03-26T17:33:53.722Z,5.20
2019-03-26T17:36:22.144Z,5.77
2019-03-26T17:38:52.619Z,5.60
2019-03-26T17:41:21.079Z,4.87
2019-03-26T17:43:51.053Z,5.40
2019-03-26T17:46:19.478Z,5.27
2019-03-26T17:48:47.943Z,4.90
2019-03-26T17:51:16.362Z,5.20
2019-03-26T17:53:44.819Z,6.83
2019-03-26T17:56:13.311Z,6.53
2019-03-26T17:58:41.727Z,4.83
2019-03-26T18:01:11.854Z,5.67
2019-03-26T18:03:40.431Z,5.33
2019-03-26T18:06:08.866Z,5.00
2019-03-26T18:08:37.300Z,4.87
2019-03-26T18:11:05.735Z,5.90
2019-03-26T18:13:34.140Z,5.60
2019-03-26T18:16:02.723Z,5.10
2019-03-26T18:18:31.140Z,5.77
2019-03-26T18:21:00.348Z,5.07
2019-03-26T18:23:28.794Z,5.07
2019-03-26T18:25:57.285Z,5.57
2019-03-26T18:28:25.834Z,5.90
2019-03-26T18:30:54.258Z,5.87
2019-03-26T18:33:22.806Z,13.50
2019-03-26T18:35:51.310Z,7.10
2019-03-26T18:38:19.749Z,7.50
2019-03-26T18:40:48.243Z,6.73
2019-03-26T18:43:16.788Z,6.20
2019-03-26T18:45:45.270Z,6.33
2019-03-26T18:48:13.732Z,6.13
2019-03-26T18:50:42.276Z,4.80
2019-03-26T18:53:12.749Z,4.80
2019-03-26T18:55:41.206Z,4.77
2019-03-26T18:58:09.616Z,5.33
2019-03-26T19:00:39.076Z,6.27
2019-03-26T19:03:08.046Z,5.50
2019-03-26T19:05:36.471Z,6.37
2019-03-26T19:08:06.001Z,5.80
2019-03-26T19:10:35.429Z,4.97
2019-03-26T19:13:17.747Z,6.00
2019-03-26T19:15:34.864Z,5.63
2019-03-26T19:18:04.033Z,5.30
2019-03-26T19:20:32.508Z,6.20
2019-03-26T19:23:00.980Z,5.23
2019-03-26T19:25:29.541Z,6.20
2019-03-26T19:27:58.571Z,6.63
2019-03-26T19:30:27.236Z,7.70
2019-03-26T19:32:57.665Z,7.13
2019-03-26T19:35:25.925Z,9.73
2019-03-26T19:37:54.332Z,34.50
2019-03-26T19:40:24.610Z,13.23
2019-03-26T19:42:53.036Z,7.60
2019-03-26T19:45:21.471Z,6.40
2019-03-26T19:47:49.935Z,6.30
2019-03-26T19:50:18.625Z,7.70
2019-03-26T19:52:47.099Z,6.57
2019-03-26T19:55:18.407Z,6.97
2019-03-26T19:57:47.025Z,7.63
2019-03-26T20:00:17.583Z,16.10
2019-03-26T20:02:46.079Z,10.10
2019-03-26T20:05:15.063Z,8.37
2019-03-26T20:07:44.135Z,6.80
2019-03-26T20:10:14.607Z,6.70
2019-03-26T20:12:43.253Z,7.00
2019-03-26T20:15:12.754Z,7.30
2019-03-26T20:17:41.548Z,7.57
2019-03-26T20:20:10.811Z,7.20
2019-03-26T20:22:39.417Z,8.50
2019-03-26T20:25:09.479Z,7.50
2019-03-26T20:27:38.370Z,7.53
2019-03-26T20:30:08.097Z,8.30
2019-03-26T20:32:36.784Z,7.97
2019-03-26T20:35:09.092Z,7.23
2019-03-26T20:37:38.035Z,7.57
2019-03-26T20:40:08.901Z,7.20
2019-03-26T20:42:41.914Z,5.70
2019-03-26T20:45:14.349Z,7.60
2019-03-26T20:47:43.120Z,7.10
2019-03-26T20:50:12.072Z,7.47
2019-03-26T20:52:40.496Z,7.80
2019-03-26T20:55:11.371Z,7.27
2019-03-26T20:57:39.873Z,7.43
2019-03-26T21:00:11.211Z,7.23
2019-03-26T21:02:39.727Z,9.80
2019-03-26T21:05:11.972Z,8.97
2019-03-26T21:07:40.928Z,8.50
2019-03-26T21:10:10.146Z,7.70
2019-03-26T21:12:38.616Z,8.30
2019-03-26T21:15:10.128Z,8.17
2019-03-26T21:17:38.902Z,8.87
2019-03-26T21:20:22.056Z,11.13
2019-03-26T21:22:50.532Z,9.67
2019-03-26T21:25:19.482Z,11.23
2019-03-26T21:27:48.227Z,9.80
2019-03-26T21:30:16.770Z,10.90
2019-03-26T21:32:45.222Z,11.67
2019-03-26T21:35:13.798Z,11.13
2019-03-26T21:37:42.452Z,12.00
2019-03-26T21:40:11.940Z,14.00
2019-03-26T21:42:40.488Z,14.37
2019-03-26T21:45:10.576Z,12.87
2019-03-26T21:47:40.544Z,10.10
2019-03-26T21:50:09.734Z,12.50
2019-03-26T21:52:38.177Z,11.83
2019-03-26T21:55:08.316Z,9.73
2019-03-26T21:57:36.774Z,9.93
2019-03-26T22:00:09.367Z,9.53
2019-03-26T22:02:37.815Z,9.57
2019-03-26T22:05:07.915Z,8.97
2019-03-26T22:07:36.328Z,10.57
2019-03-26T22:10:06.728Z,11.00
2019-03-26T22:12:35.142Z,10.80
2019-03-26T22:15:06.538Z,9.87
2019-03-26T22:17:34.954Z,11.37
2019-03-26T22:20:03.812Z,12.20
2019-03-26T22:22:32.274Z,10.80
2019-03-26T22:25:00.724Z,11.70
2019-03-26T22:27:29.192Z,10.23
2019-03-26T22:29:57.702Z,10.60
2019-03-26T22:32:26.166Z,9.80
2019-03-26T22:34:54.594Z,9.70
2019-03-26T22:37:23.097Z,10.37
2019-03-26T22:39:52.423Z,10.60
2019-03-26T22:42:21.006Z,9.70
2019-03-26T22:44:49.434Z,11.10
2019-03-26T22:47:17.894Z,12.37
2019-03-26T22:49:51.528Z,10.60
2019-03-26T22:52:20.018Z,9.37
2019-03-26T22:54:48.460Z,10.83
2019-03-26T22:57:16.971Z,11.97
2019-03-26T22:59:45.424Z,12.10
2019-03-26T23:02:13.884Z,10.60
2019-03-26T23:04:42.408Z,12.20
2019-03-26T23:07:10.829Z,11.03
2019-03-26T23:09:39.345Z,13.13
2019-03-26T23:12:08.102Z,13.17
2019-03-26T23:14:44.902Z,11.77
2019-03-26T23:17:06.682Z,11.40
2019-03-26T23:19:35.167Z,14.30
2019-03-26T23:22:03.802Z,12.07
2019-03-26T23:24:32.239Z,12.90
2019-03-26T23:27:00.688Z,12.60
2019-03-26T23:29:29.114Z,11.40
2019-03-26T23:31:57.644Z,12.87
2019-03-26T23:34:26.100Z,12.10
2019-03-26T23:36:54.582Z,12.57
2019-03-26T23:39:23.103Z,11.13
2019-03-26T23:41:51.547Z,10.30
2019-03-26T23:44:25.702Z,10.60
2019-03-26T23:46:50.172Z,10.53
2019-03-26T23:49:18.602Z,11.43
2019-03-26T23:51:47.046Z,11.67
2019-03-26T23:54:15.495Z,10.50
2019-03-26T23:56:43.946Z,11.73
2019-03-26T23:59:12.411Z,11.77
